Time,TemperatureF,DewpointF,PressureIn,WindDirection,WindDirectionDegrees,WindSpeedMPH,WindSpeedGustMPH,Humidity,HourlyPrecipIn,Conditions,Clouds,dailyrainin,SolarRadiationWatts/m^2,SoftwareType,DateUTC
2013-06-15 00:03:00,49.9,48.5,29.53,SSW,212,4.6,4.6,95,0.06,RA,,0.00,0.0,WeatherDisplay:10.37,2013-06-14 23:03:00,
2013-06-15 00:08:00,49.9,48.5,29.52,South,184,5.8,5.8,95,0.05,RA,,0.01,0.0,WeatherDisplay:10.37,2013-06-14 23:08:00,
2013-06-15 00:14:00,49.9,48.8,29.52,SSW,203,4.6,4.6,96,0.05,RA,,0.01,0.0,WeatherDisplay:10.37,2013-06-14 23:14:00,
2013-06-15 00:19:00,49.8,48.7,29.51,South,175,4.6,4.6,96,0.04,,,0.01,0.0,WeatherDisplay:10.37,2013-06-14 23:19:00,
2013-06-15 00:24:00,49.9,48.8,29.51,South,191,3.5,3.5,96,0.03,CLR,,0.01,0.0,WeatherDisplay:10.37,2013-06-14 23:24:00,
2013-06-15 00:29:00,49.8,48.7,29.50,SSW,209,5.0,5.0,96,0.02,CLR,,0.01,0.0,WeatherDisplay:10.37,2013-06-14 23:29:00,
2013-06-15 00:34:00,49.8,48.7,29.50,South,178,6.9,6.9,96,0.02,CLR,,0.01,0.0,WeatherDisplay:10.37,2013-06-14 23:34:00,
2013-06-15 00:39:00,49.8,49.0,29.49,South,175,6.9,6.9,97,0.02,CLR,,0.01,0.0,WeatherDisplay:10.37,2013-06-14 23:39:00,
2013-06-15 00:44:00,49.6,48.8,29.49,South,182,3.5,3.5,97,0.02,CLR,,0.01,0.0,WeatherDisplay:10.37,2013-06-14 23:44:00,
2013-06-15 00:49:00,49.6,48.8,29.48,SSW,199,5.0,5.0,97,0.02,CLR,,0.01,0.0,WeatherDisplay:10.37,2013-06-14 23:49:00,
2013-06-15 00:55:00,49.8,49.0,29.48,SW,219,8.1,8.1,97,0.01,CLR,,0.01,0.0,WeatherDisplay:10.37,2013-06-14 23:55:00,
2013-06-15 01:00:00,49.8,49.0,29.47,SSW,192,6.9,6.9,97,0.02,RA,,0.02,0.0,WeatherDisplay:10.37,2013-06-15 00:00:00,
2013-06-15 01:05:00,49.8,49.3,29.47,SW,222,7.0,7.0,98,0.02,RA,,0.02,0.0,WeatherDisplay:10.37,2013-06-15 00:05:00,
2013-06-15 01:10:00,49.9,49.4,29.47,SW,234,9.2,9.2,98,0.01,,,0.02,0.0,WeatherDisplay:10.37,2013-06-15 00:10:00,
2013-06-15 01:15:00,49.9,49.4,29.46,South,172,5.8,5.8,98,0.01,CLR,,0.02,0.0,WeatherDisplay:10.37,2013-06-15 00:15:00,
2013-06-15 01:20:00,49.9,49.4,29.46,SSW,212,9.2,9.2,98,0.01,CLR,,0.02,0.0,WeatherDisplay:10.37,2013-06-15 00:20:00,
2013-06-15 01:25:00,50.1,49.6,29.45,SW,227,9.2,9.2,98,0.01,CLR,,0.02,0.0,WeatherDisplay:10.37,2013-06-15 00:25:00,
2013-06-15 01:30:00,50.1,49.6,29.45,SSW,212,11.5,11.5,98,0.01,CLR,,0.02,0.0,WeatherDisplay:10.37,2013-06-15 00:30:00,
2013-06-15 01:35:00,50.1,49.8,29.45,SSW,192,11.5,11.5,99,0.01,CLR,,0.02,0.0,WeatherDisplay:10.37,2013-06-15 00:35:00,
2013-06-15 01:40:00,50.1,49.8,29.44,SSW,192,5.8,5.8,99,0.01,CLR,,0.02,0.0,WeatherDisplay:10.37,2013-06-15 00:40:00,
2013-06-15 01:45:00,50.1,49.8,29.44,SW,233,11.5,11.5,99,0.01,CLR,,0.02,0.0,WeatherDisplay:10.37,2013-06-15 00:45:00,
2013-06-15 01:51:00,50.1,49.8,29.44,SSW,209,7.0,7.5,99,0.01,CLR,,0.02,0.0,WeatherDisplay:10.37,2013-06-15 00:51:00,
2013-06-15 01:56:00,50.1,49.8,29.43,SW,215,8.1,8.1,99,0.01,CLR,,0.02,0.0,WeatherDisplay:10.37,2013-06-15 00:56:00,
2013-06-15 02:01:00,50.1,49.8,29.43,SSW,208,12.7,12.7,99,0.00,CLR,,0.02,0.0,WeatherDisplay:10.37,2013-06-15 01:01:00,
2013-06-15 02:06:00,50.1,49.8,29.43,SSW,198,5.8,5.8,99,0.00,CLR,,0.02,0.0,WeatherDisplay:10.37,2013-06-15 01:06:00,
2013-06-15 02:11:00,50.1,49.8,29.43,SW,233,7.0,7.0,99,0.00,CLR,,0.02,0.0,WeatherDisplay:10.37,2013-06-15 01:11:00,
2013-06-15 02:16:00,50.1,49.8,29.43,South,186,6.9,6.9,99,0.00,CLR,,0.02,0.0,WeatherDisplay:10.37,2013-06-15 01:16:00,
2013-06-15 02:21:00,50.1,49.8,29.42,SW,230,4.6,4.6,99,0.00,CLR,,0.02,0.0,WeatherDisplay:10.37,2013-06-15 01:21:00,
2013-06-15 02:26:00,50.1,49.8,29.42,WSW,239,8.1,8.1,99,0.00,CLR,,0.02,0.0,WeatherDisplay:10.37,2013-06-15 01:26:00,
2013-06-15 02:31:00,50.1,49.8,29.41,SW,224,5.0,5.0,99,0.00,CLR,,0.02,0.0,WeatherDisplay:10.37,2013-06-15 01:31:00,
2013-06-15 02:37:00,50.1,49.8,29.41,SW,233,8.1,8.1,99,0.00,CLR,,0.02,0.0,WeatherDisplay:10.37,2013-06-15 01:37:00,
2013-06-15 02:42:00,49.9,49.6,29.40,SW,220,6.9,6.9,99,0.00,CLR,,0.02,0.0,WeatherDisplay:10.37,2013-06-15 01:42:00,
2013-06-15 02:47:00,49.8,49.5,29.40,WSW,240,4.6,4.6,99,0.00,CLR,,0.02,0.0,WeatherDisplay:10.37,2013-06-15 01:47:00,
2013-06-15 02:52:00,49.8,49.5,29.40,South,191,6.9,6.9,99,0.00,CLR,,0.02,0.0,WeatherDisplay:10.37,2013-06-15 01:52:00,
2013-06-15 02:57:00,49.8,49.5,29.39,SW,226,7.0,7.0,99,0.00,CLR,,0.02,0.0,WeatherDisplay:10.37,2013-06-15 01:57:00,
2013-06-15 03:02:00,49.8,49.5,29.38,WSW,246,8.1,8.1,99,0.00,CLR,,0.02,0.0,WeatherDisplay:10.37,2013-06-15 02:02:00,
2013-06-15 03:08:00,49.8,49.5,29.38,WSW,244,11.5,11.5,99,0.00,CLR,,0.02,0.0,WeatherDisplay:10.37,2013-06-15 02:08:00,
2013-06-15 03:13:00,49.9,49.6,29.38,WSW,241,11.5,11.5,99,0.00,CLR,,0.02,0.0,WeatherDisplay:10.37,2013-06-15 02:13:00,
2013-06-15 03:18:00,49.9,49.6,29.37,WSW,258,11.5,11.5,99,0.00,CLR,,0.02,0.0,WeatherDisplay:10.37,2013-06-15 02:18:00,
2013-06-15 03:23:00,49.9,49.6,29.37,SW,234,6.9,6.9,99,0.00,CLR,,0.02,0.0,WeatherDisplay:10.37,2013-06-15 02:23:00,
2013-06-15 03:28:00,50.1,49.8,29.36,WSW,247,11.0,11.0,99,0.00,CLR,,0.02,0.0,WeatherDisplay:10.37,2013-06-15 02:28:00,
2013-06-15 03:33:00,50.2,49.9,29.36,WSW,256,7.0,7.0,99,0.00,CLR,,0.02,0.0,WeatherDisplay:10.37,2013-06-15 02:33:00,
2013-06-15 03:38:00,50.4,50.1,29.36,WSW,237,8.0,8.0,99,0.00,CLR,,0.02,0.0,WeatherDisplay:10.37,2013-06-15 02:38:00,
2013-06-15 03:43:00,50.4,50.1,29.36,SW,229,8.1,8.1,99,0.00,CLR,,0.02,0.0,WeatherDisplay:10.37,2013-06-15 02:43:00,
2013-06-15 03:48:00,50.4,50.1,29.36,SW,230,11.5,11.5,99,0.00,CLR,,0.02,0.0,WeatherDisplay:10.37,2013-06-15 02:48:00,
2013-06-15 03:54:00,50.4,50.1,29.35,SW,236,10.4,10.4,99,0.00,CLR,,0.02,0.0,WeatherDisplay:10.37,2013-06-15 02:54:00,
2013-06-15 03:59:00,50.4,50.1,29.35,WSW,246,5.8,5.8,99,0.00,CLR,,0.02,0.0,WeatherDisplay:10.37,2013-06-15 02:59:00,
2013-06-15 04:04:00,50.5,50.2,29.35,WSW,258,8.1,8.1,99,0.00,OVC,,0.02,0.0,WeatherDisplay:10.37,2013-06-15 03:04:00,
2013-06-15 04:09:00,50.7,50.4,29.36,WSW,257,11.5,11.5,99,0.00,OVC,,0.02,0.0,WeatherDisplay:10.37,2013-06-15 03:09:00,
2013-06-15 04:14:00,50.8,50.3,29.36,North,356,5.0,5.0,98,0.00,OVC,,0.02,0.0,WeatherDisplay:10.37,2013-06-15 03:14:00,
2013-06-15 04:19:00,51.0,50.5,29.36,NNW,347,19.6,19.6,98,0.00,OVC,,0.02,0.0,WeatherDisplay:10.37,2013-06-15 03:19:00,
2013-06-15 04:24:00,50.8,50.3,29.36,North,0,18.4,18.4,98,0.00,OVC,,0.02,0.0,WeatherDisplay:10.37,2013-06-15 03:24:00,
2013-06-15 04:29:00,50.4,49.6,29.36,NNW,344,11.5,11.5,97,0.01,RA,,0.03,0.0,WeatherDisplay:10.37,2013-06-15 03:29:00,
2013-06-15 04:34:00,50.2,49.4,29.36,North,0,11.5,11.5,97,0.01,RA,,0.03,0.0,WeatherDisplay:10.37,2013-06-15 03:34:00,
2013-06-15 04:39:00,50.1,49.6,29.36,SW,229,11.5,11.5,98,0.01,OVC,,0.03,0.0,WeatherDisplay:10.37,2013-06-15 03:39:00,
2013-06-15 04:45:00,49.9,49.1,29.36,North,349,13.8,13.8,97,0.01,OVC,,0.03,0.0,WeatherDisplay:10.37,2013-06-15 03:45:00,
2013-06-15 04:50:00,49.8,49.3,29.36,North,354,19.6,19.6,98,0.01,BKN,,0.03,5.0,WeatherDisplay:10.37,2013-06-15 03:50:00,
2013-06-15 04:55:00,49.8,49.0,29.36,SW,234,11.5,11.5,97,0.01,OVC,,0.03,5.0,WeatherDisplay:10.37,2013-06-15 03:55:00,
2013-06-15 05:00:00,49.6,48.8,29.36,NNW,333,13.8,13.8,97,0.01,OVC,,0.03,0.0,WeatherDisplay:10.37,2013-06-15 04:00:00,
2013-06-15 05:01:00,49.6,48.8,29.36,WNW,296,13.8,13.8,97,0.01,OVC,,0.03,5.0,WeatherDisplay:10.37,2013-06-15 04:01:00,
2013-06-15 05:07:00,49.6,48.8,29.36,North,353,11.5,11.5,97,0.01,OVC,,0.03,5.0,WeatherDisplay:10.37,2013-06-15 04:07:00,
2013-06-15 05:12:00,49.5,49.0,29.36,NNW,343,13.8,13.8,98,0.01,OVC,,0.03,5.0,WeatherDisplay:10.37,2013-06-15 04:12:00,
2013-06-15 05:17:00,49.4,48.9,29.37,WSW,256,18.4,18.4,98,0.01,OVC,,0.03,18.0,WeatherDisplay:10.37,2013-06-15 04:17:00,
2013-06-15 05:22:00,49.2,48.7,29.37,NNW,337,14.0,14.0,98,0.01,OVC,,0.03,11.0,WeatherDisplay:10.37,2013-06-15 04:22:00,
2013-06-15 05:27:00,49.1,48.6,29.37,North,0,16.0,16.0,98,0.01,OVC,,0.03,18.0,WeatherDisplay:10.37,2013-06-15 04:27:00,
2013-06-15 05:32:00,49.1,48.6,29.37,WSW,257,11.5,11.5,98,0.00,BKN,,0.03,33.0,WeatherDisplay:10.37,2013-06-15 04:32:00,
2013-06-15 05:37:00,48.9,48.4,29.37,NNW,333,11.5,11.5,98,0.00,OVC,,0.03,12.0,WeatherDisplay:10.37,2013-06-15 04:37:00,
2013-06-15 05:42:00,48.8,48.3,29.37,SSW,198,11.5,11.5,98,0.01,RA,,0.04,28.0,WeatherDisplay:10.37,2013-06-15 04:42:00,
2013-06-15 05:48:00,48.6,48.1,29.37,NW,320,14.0,14.0,98,0.01,RA,,0.04,21.0,WeatherDisplay:10.37,2013-06-15 04:48:00,
2013-06-15 05:53:00,48.6,48.1,29.38,NNW,343,11.5,11.5,98,0.01,OVC,,0.04,28.0,WeatherDisplay:10.37,2013-06-15 04:53:00,
2013-06-15 05:58:00,48.5,48.2,29.38,NNW,332,12.0,12.0,99,0.02,RA,,0.05,30.0,WeatherDisplay:10.37,2013-06-15 04:58:00,
2013-06-15 06:03:00,48.3,48.0,29.38,NNW,347,17.3,17.3,99,0.02,RA,,0.05,28.0,WeatherDisplay:10.37,2013-06-15 05:03:00,
2013-06-15 06:09:00,48.2,47.9,29.38,NNW,329,17.3,17.3,99,0.02,OVC,,0.05,42.0,WeatherDisplay:10.37,2013-06-15 05:09:00,
2013-06-15 06:14:00,47.9,47.4,29.38,NNW,340,12.7,12.7,98,0.02,BKN,,0.05,58.0,WeatherDisplay:10.37,2013-06-15 05:14:00,
2013-06-15 06:19:00,47.6,47.3,29.38,ESE,102,11.5,11.5,99,0.02,OVC,,0.05,51.0,WeatherDisplay:10.37,2013-06-15 05:19:00,
2013-06-15 06:24:00,47.4,47.1,29.38,NW,322,13.8,13.8,99,0.03,RA,,0.06,72.0,WeatherDisplay:10.37,2013-06-15 05:24:00,
2013-06-15 06:29:00,47.3,47.0,29.38,WNW,298,18.4,18.4,99,0.03,RA,,0.06,93.0,WeatherDisplay:10.37,2013-06-15 05:29:00,
2013-06-15 06:34:00,47.3,47.0,29.38,NNW,329,19.0,19.0,99,0.03,BKN,,0.06,74.0,WeatherDisplay:10.37,2013-06-15 05:34:00,
2013-06-15 06:39:00,47.3,47.0,29.38,SW,215,13.8,13.8,99,0.02,BKN,,0.06,74.0,WeatherDisplay:10.37,2013-06-15 05:39:00,
2013-06-15 06:44:00,47.1,46.8,29.38,WNW,285,11.5,11.5,99,0.03,RA,,0.07,60.0,WeatherDisplay:10.37,2013-06-15 05:44:00,
2013-06-15 06:49:00,47.0,46.7,29.39,NNW,342,17.3,17.3,99,0.03,RA,,0.07,62.0,WeatherDisplay:10.37,2013-06-15 05:49:00,
2013-06-15 06:54:00,46.7,46.4,29.39,North,350,11.5,11.5,99,0.03,OVC,,0.07,60.0,WeatherDisplay:10.37,2013-06-15 05:54:00,
2013-06-15 06:59:00,46.5,46.2,29.39,NNW,340,13.8,13.8,99,0.02,OVC,,0.07,77.0,WeatherDisplay:10.37,2013-06-15 05:59:00,
2013-06-15 07:04:00,46.4,46.1,29.39,SSE,158,8.1,8.1,99,0.02,OVC,,0.07,58.0,WeatherDisplay:10.37,2013-06-15 06:04:00,
2013-06-15 07:10:00,46.5,46.2,29.39,North,350,17.3,17.3,99,0.02,OVC,,0.07,65.0,WeatherDisplay:10.37,2013-06-15 06:10:00,
2013-06-15 07:15:00,46.7,46.4,29.39,NW,318,17.3,17.3,99,0.03,RA,,0.08,81.0,WeatherDisplay:10.37,2013-06-15 06:15:00,
2013-06-15 07:20:00,46.7,46.4,29.39,WSW,237,12.7,12.7,99,0.02,RA,,0.08,97.0,WeatherDisplay:10.37,2013-06-15 06:20:00,
2013-06-15 07:25:00,46.7,46.4,29.40,SSW,196,13.8,13.8,99,0.02,OVC,,0.08,44.0,WeatherDisplay:10.37,2013-06-15 06:25:00,
2013-06-15 07:30:00,46.7,46.4,29.40,West,272,10.4,10.4,99,0.03,RA,,0.09,63.0,WeatherDisplay:10.37,2013-06-15 06:30:00,
2013-06-15 07:35:00,46.5,46.2,29.40,North,0,10.4,10.4,99,0.03,RA,,0.09,106.0,WeatherDisplay:10.37,2013-06-15 06:35:00,
2013-06-15 07:40:00,46.5,46.2,29.40,SW,233,12.7,12.7,99,0.02,OVC,,0.09,106.0,WeatherDisplay:10.37,2013-06-15 06:40:00,
2013-06-15 07:45:00,46.4,45.9,29.40,NNW,336,13.8,13.8,98,0.02,OVC,,0.09,100.0,WeatherDisplay:10.37,2013-06-15 06:45:00,
2013-06-15 07:50:00,46.4,45.9,29.40,North,350,18.4,18.4,98,0.02,OVC,,0.09,127.0,WeatherDisplay:10.37,2013-06-15 06:50:00,
2013-06-15 07:55:00,46.2,45.7,29.40,NNW,346,13.8,13.8,98,0.03,RA,,0.10,116.0,WeatherDisplay:10.37,2013-06-15 06:55:00,
2013-06-15 08:01:00,46.4,45.9,29.40,NNW,333,11.5,11.5,98,0.03,RA,,0.10,121.0,WeatherDisplay:10.37,2013-06-15 07:01:00,
2013-06-15 08:06:00,46.7,46.2,29.41,North,0,18.4,18.4,98,0.03,OVC,,0.10,118.0,WeatherDisplay:10.37,2013-06-15 07:06:00,
2013-06-15 08:11:00,46.7,46.2,29.41,SW,236,12.7,12.7,98,0.03,OVC,,0.10,137.0,WeatherDisplay:10.37,2013-06-15 07:11:00,
2013-06-15 08:16:00,46.8,46.5,29.41,NNW,336,12.7,12.7,99,0.02,BKN,,0.10,195.0,WeatherDisplay:10.37,2013-06-15 07:16:00,
2013-06-15 08:21:00,47.0,46.7,29.41,NNW,332,13.8,13.8,99,0.02,BKN,,0.10,194.0,WeatherDisplay:10.37,2013-06-15 07:21:00,
2013-06-15 08:26:00,47.1,46.8,29.41,SW,232,11.5,11.5,99,0.03,RA,,0.11,158.0,WeatherDisplay:10.37,2013-06-15 07:26:00,
2013-06-15 08:31:00,47.1,46.8,29.41,WSW,254,10.4,10.4,99,0.02,RA,,0.11,197.0,WeatherDisplay:10.37,2013-06-15 07:31:00,
2013-06-15 08:36:00,47.3,47.0,29.40,NNW,336,11.5,11.5,99,0.02,BKN,,0.11,190.0,WeatherDisplay:10.37,2013-06-15 07:36:00,
2013-06-15 08:42:00,47.0,46.5,29.40,North,356,12.7,12.7,98,0.03,RA,,0.12,151.0,WeatherDisplay:10.37,2013-06-15 07:42:00,
2013-06-15 08:47:00,47.0,46.5,29.40,NNW,333,13.8,13.8,98,0.03,RA,,0.12,157.0,WeatherDisplay:10.37,2013-06-15 07:47:00,
2013-06-15 08:52:00,47.1,46.8,29.40,West,272,18.4,18.4,99,0.04,RA,,0.13,167.0,WeatherDisplay:10.37,2013-06-15 07:52:00,
2013-06-15 08:57:00,47.1,46.8,29.40,North,0,17.3,17.3,99,0.05,RA,,0.15,164.0,WeatherDisplay:10.37,2013-06-15 07:57:00,
2013-06-15 09:02:00,47.1,46.8,29.40,North,352,18.4,18.4,99,0.06,RA,,0.16,183.0,WeatherDisplay:10.37,2013-06-15 08:02:00,
2013-06-15 09:07:00,47.3,47.0,29.40,NNW,335,18.4,18.4,99,0.07,RA,,0.18,121.0,WeatherDisplay:10.37,2013-06-15 08:07:00,
2013-06-15 09:13:00,47.1,46.8,29.41,NNW,343,13.8,13.8,99,0.09,RA,,0.19,99.0,WeatherDisplay:10.37,2013-06-15 08:13:00,
2013-06-15 09:18:00,47.1,46.8,29.42,SW,233,6.9,6.9,99,0.13,RA,,0.23,67.0,WeatherDisplay:10.37,2013-06-15 08:18:00,
2013-06-15 09:23:00,47.3,47.0,29.42,SW,236,6.9,6.9,99,0.15,RA,,0.25,74.0,WeatherDisplay:10.37,2013-06-15 08:23:00,
2013-06-15 09:28:00,47.1,46.8,29.42,NNW,332,7.0,7.0,99,0.15,RA,,0.27,76.0,WeatherDisplay:10.37,2013-06-15 08:28:00,
2013-06-15 09:33:00,46.7,46.2,29.42,NNW,329,14.0,14.0,98,0.20,RA,,0.32,76.0,WeatherDisplay:10.37,2013-06-15 08:33:00,
2013-06-15 09:38:00,46.2,45.9,29.42,NNW,347,3.5,3.5,99,0.24,RA,,0.35,135.0,WeatherDisplay:10.37,2013-06-15 08:38:00,
2013-06-15 09:44:00,46.5,46.2,29.42,WSW,258,6.9,6.9,99,0.24,RA,,0.36,109.0,WeatherDisplay:10.37,2013-06-15 08:44:00,
2013-06-15 09:49:00,46.8,46.5,29.42,SW,229,10.4,10.4,99,0.25,RA,,0.39,95.0,WeatherDisplay:10.37,2013-06-15 08:49:00,
2013-06-15 09:54:00,46.7,46.4,29.42,North,0,6.9,6.9,99,0.27,RA,,0.41,109.0,WeatherDisplay:10.37,2013-06-15 08:54:00,
2013-06-15 09:59:00,46.2,45.9,29.42,NNW,344,10.0,10.0,99,0.29,RA,,0.44,120.0,WeatherDisplay:10.37,2013-06-15 08:59:00,
2013-06-15 10:04:00,46.7,46.4,29.42,NW,316,12.7,12.7,99,0.29,RA,,0.46,157.0,WeatherDisplay:10.37,2013-06-15 09:04:00,
2013-06-15 10:09:00,47.4,47.4,29.42,North,356,16.1,16.1,100,0.29,RA,,0.47,157.0,WeatherDisplay:10.37,2013-06-15 09:09:00,
2013-06-15 10:15:00,47.7,47.7,29.42,West,278,6.0,6.0,100,0.29,RA,,0.49,120.0,WeatherDisplay:10.37,2013-06-15 09:15:00,
2013-06-15 10:20:00,47.7,47.4,29.42,NNW,333,11.5,11.5,99,0.27,RA,,0.50,199.0,WeatherDisplay:10.37,2013-06-15 09:20:00,
2013-06-15 10:25:00,47.9,47.9,29.43,NNW,337,6.9,6.9,100,0.26,RA,,0.51,195.0,WeatherDisplay:10.37,2013-06-15 09:25:00,
2013-06-15 10:30:00,48.0,48.0,29.43,North,352,12.7,12.7,100,0.25,RA,,0.54,222.0,WeatherDisplay:10.37,2013-06-15 09:30:00,
2013-06-15 10:35:00,48.0,48.0,29.43,NNW,333,18.4,18.4,100,0.21,RA,,0.55,164.0,WeatherDisplay:10.37,2013-06-15 09:35:00,
2013-06-15 10:40:00,48.0,47.7,29.43,North,0,16.1,16.1,99,0.21,RA,,0.57,190.0,WeatherDisplay:10.37,2013-06-15 09:40:00,
2013-06-15 10:45:00,48.2,47.9,29.43,NNW,342,12.7,12.7,99,0.21,RA,,0.58,179.0,WeatherDisplay:10.37,2013-06-15 09:45:00,
2013-06-15 10:51:00,48.2,47.9,29.43,SW,227,16.1,16.1,99,0.20,RA,,0.59,164.0,WeatherDisplay:10.37,2013-06-15 09:51:00,
2013-06-15 10:56:00,48.3,48.0,29.43,North,0,17.3,17.3,99,0.19,RA,,0.60,155.0,WeatherDisplay:10.37,2013-06-15 09:56:00,
2013-06-15 11:01:00,48.0,47.7,29.43,NNW,335,10.4,10.4,99,0.16,RA,,0.61,120.0,WeatherDisplay:10.37,2013-06-15 10:01:00,
2013-06-15 11:06:00,48.0,47.7,29.43,NNW,333,13.8,13.8,99,0.15,RA,,0.62,128.0,WeatherDisplay:10.37,2013-06-15 10:06:00,
2013-06-15 11:11:00,48.2,47.9,29.43,West,275,13.8,13.8,99,0.15,RA,,0.63,144.0,WeatherDisplay:10.37,2013-06-15 10:11:00,
2013-06-15 11:16:00,48.0,47.5,29.43,NNW,336,13.8,13.8,98,0.15,RA,,0.64,167.0,WeatherDisplay:10.37,2013-06-15 10:16:00,
2013-06-15 11:22:00,47.9,47.4,29.43,WNW,285,13.8,13.8,98,0.15,RA,,0.65,171.0,WeatherDisplay:10.37,2013-06-15 10:22:00,
2013-06-15 11:27:00,47.9,47.4,29.43,SSW,195,17.3,17.3,98,0.14,RA,,0.66,167.0,WeatherDisplay:10.37,2013-06-15 10:27:00,
2013-06-15 11:32:00,48.0,47.5,29.43,North,352,11.5,11.5,98,0.13,RA,,0.67,188.0,WeatherDisplay:10.37,2013-06-15 10:32:00,
2013-06-15 11:37:00,48.6,48.1,29.43,North,0,18.4,18.4,98,0.11,RA,,0.68,282.0,WeatherDisplay:10.37,2013-06-15 10:37:00,
2013-06-15 11:42:00,49.2,48.9,29.43,WNW,289,19.6,19.6,99,0.11,RA,,0.68,301.0,WeatherDisplay:10.37,2013-06-15 10:42:00,
2013-06-15 11:47:00,50.7,50.4,29.43,North,356,11.5,11.5,99,0.10,RA,,0.68,584.0,WeatherDisplay:10.37,2013-06-15 10:47:00,
2013-06-15 11:52:00,50.5,50.0,29.43,North,357,11.5,11.5,98,0.09,BKN,,0.68,415.0,WeatherDisplay:10.37,2013-06-15 10:52:00,
2013-06-15 11:57:00,50.1,49.6,29.44,NW,306,19.6,19.6,98,0.08,BKN,,0.68,415.0,WeatherDisplay:10.37,2013-06-15 10:57:00,
2013-06-15 12:03:00,49.8,49.3,29.44,North,0,20.0,20.0,98,0.08,RA,,0.69,517.0,WeatherDisplay:10.37,2013-06-15 11:03:00,
2013-06-15 12:08:00,49.5,48.7,29.44,SW,229,19.6,19.6,97,0.07,RA,,0.69,241.0,WeatherDisplay:10.37,2013-06-15 11:08:00,
2013-06-15 12:13:00,49.4,48.6,29.44,North,359,17.3,17.3,97,0.07,RA,,0.70,230.0,WeatherDisplay:10.37,2013-06-15 11:13:00,
2013-06-15 12:18:00,49.2,48.4,29.44,NNW,335,13.8,13.8,97,0.07,RA,,0.71,171.0,WeatherDisplay:10.37,2013-06-15 11:18:00,
2013-06-15 12:23:00,48.9,48.1,29.44,North,0,13.8,13.8,97,0.06,RA,,0.72,239.0,WeatherDisplay:10.37,2013-06-15 11:23:00,
2013-06-15 12:28:00,49.1,48.6,29.44,North,0,17.3,17.3,98,0.06,RA,,0.72,222.0,WeatherDisplay:10.37,2013-06-15 11:28:00,
2013-06-15 12:33:00,49.2,48.4,29.44,NNW,343,11.5,11.5,97,0.06,RA,,0.73,306.0,WeatherDisplay:10.37,2013-06-15 11:33:00,
2013-06-15 12:38:00,49.4,48.6,29.44,NNW,346,13.8,13.8,97,0.06,RA,,0.74,357.0,WeatherDisplay:10.37,2013-06-15 11:38:00,
2013-06-15 12:43:00,49.6,48.8,29.44,SW,230,12.7,12.7,97,0.07,RA,,0.75,301.0,WeatherDisplay:10.37,2013-06-15 11:43:00,
2013-06-15 12:49:00,49.6,48.5,29.44,North,0,19.6,19.6,96,0.08,RA,,0.76,285.0,WeatherDisplay:10.37,2013-06-15 11:49:00,
2013-06-15 12:54:00,48.9,47.8,29.44,NNW,344,17.3,17.3,96,0.08,RA,,0.76,280.0,WeatherDisplay:10.37,2013-06-15 11:54:00,
2013-06-15 12:59:00,49.4,48.3,29.44,North,0,11.5,11.5,96,0.08,BKN,,0.76,454.0,WeatherDisplay:10.37,2013-06-15 11:59:00,
2013-06-15 13:04:00,49.9,48.8,29.44,West,267,14.0,14.0,96,0.07,SCT,,0.76,688.0,WeatherDisplay:10.37,2013-06-15 12:04:00,
2013-06-15 13:09:00,50.4,49.3,29.44,SSW,212,19.6,19.6,96,0.07,SCT,,0.76,688.0,WeatherDisplay:10.37,2013-06-15 12:09:00,
2013-06-15 13:14:00,50.5,49.4,29.44,WNW,292,17.3,17.3,96,0.06,BKN,,0.76,394.0,WeatherDisplay:10.37,2013-06-15 12:14:00,
2013-06-15 13:20:00,50.4,49.0,29.44,SW,227,18.4,18.4,95,0.05,OVC,,0.76,317.0,WeatherDisplay:10.37,2013-06-15 12:20:00,
2013-06-15 13:25:00,50.4,49.0,29.44,North,0,16.1,16.1,95,0.04,FEW,,0.76,832.0,WeatherDisplay:10.37,2013-06-15 12:25:00,
2013-06-15 13:30:00,50.8,49.1,29.45,NW,316,10.0,30.0,94,0.00,CLR,,0.76,917.0,WeatherDisplay:10.37,2013-06-15 12:30:00,
2013-06-15 13:35:00,51.0,48.8,29.45,North,0,16.1,16.1,92,0.03,FEW,,0.76,787.0,WeatherDisplay:10.37,2013-06-15 12:35:00,
2013-06-15 13:40:00,50.7,48.5,29.45,SW,219,20.7,20.7,92,0.02,OVC,,0.76,366.0,WeatherDisplay:10.37,2013-06-15 12:40:00,
2013-06-15 13:45:00,50.1,47.9,29.45,NNW,336,17.3,17.3,92,0.01,OVC,,0.76,331.0,WeatherDisplay:10.37,2013-06-15 12:45:00,
2013-06-15 13:50:00,49.6,47.7,29.45,NNW,335,11.5,11.5,93,0.01,RA,,0.77,310.0,WeatherDisplay:10.37,2013-06-15 12:50:00,
2013-06-15 13:55:00,49.4,47.7,29.45,North,0,21.9,21.9,94,0.01,RA,,0.77,308.0,WeatherDisplay:10.37,2013-06-15 12:55:00,
2013-06-15 14:00:00,49.6,48.2,29.45,NNW,335,16.1,16.1,95,0.01,OVC,,0.77,324.0,WeatherDisplay:10.37,2013-06-15 13:00:00,
2013-06-15 14:06:00,49.5,48.1,29.45,SW,219,20.7,20.7,95,0.02,RA,,0.78,371.0,WeatherDisplay:10.37,2013-06-15 13:06:00,
2013-06-15 14:11:00,49.4,48.0,29.46,NNW,339,17.3,17.3,95,0.02,RA,,0.78,396.0,WeatherDisplay:10.37,2013-06-15 13:11:00,
2013-06-15 14:16:00,49.2,47.8,29.46,North,0,16.1,16.1,95,0.02,BKN,,0.78,387.0,WeatherDisplay:10.37,2013-06-15 13:16:00,
2013-06-15 14:21:00,49.4,48.0,29.45,North,357,12.7,12.7,95,0.03,RA,,0.79,289.0,WeatherDisplay:10.37,2013-06-15 13:21:00,
2013-06-15 14:26:00,49.1,47.7,29.46,NNW,342,16.1,16.1,95,0.03,RA,,0.79,241.0,WeatherDisplay:10.37,2013-06-15 13:26:00,
2013-06-15 14:31:00,48.9,47.5,29.46,SW,227,17.3,17.3,95,0.03,OVC,,0.80,222.0,WeatherDisplay:10.37,2013-06-15 13:31:00,
2013-06-15 14:36:00,48.6,47.2,29.46,North,0,16.1,16.1,95,0.04,RA,,0.80,148.0,WeatherDisplay:10.37,2013-06-15 13:36:00,
2013-06-15 14:41:00,48.2,46.8,29.46,NW,323,18.4,18.4,95,0.04,RA,,0.80,174.0,WeatherDisplay:10.37,2013-06-15 13:41:00,
2013-06-15 14:47:00,48.0,46.9,29.46,North,353,17.3,17.3,96,0.04,OVC,,0.80,146.0,WeatherDisplay:10.37,2013-06-15 13:47:00,
2013-06-15 14:52:00,48.0,46.9,29.45,SW,222,12.7,12.7,96,0.03,OVC,,0.80,118.0,WeatherDisplay:10.37,2013-06-15 13:52:00,
2013-06-15 14:57:00,48.2,47.1,29.45,NNW,344,19.6,19.6,96,0.03,OVC,,0.80,202.0,WeatherDisplay:10.37,2013-06-15 13:57:00,
2013-06-15 15:02:00,48.3,47.2,29.45,SW,230,17.3,17.3,96,0.03,OVC,,0.80,183.0,WeatherDisplay:10.37,2013-06-15 14:02:00,
2013-06-15 15:07:00,48.5,47.4,29.45,North,0,11.5,11.5,96,0.03,RA,,0.81,232.0,WeatherDisplay:10.37,2013-06-15 14:07:00,
2013-06-15 15:12:00,48.8,47.7,29.45,North,0,11.5,11.5,96,0.03,RA,,0.81,157.0,WeatherDisplay:10.37,2013-06-15 14:12:00,
2013-06-15 15:18:00,48.8,47.7,29.45,NNW,346,11.5,11.5,96,0.02,OVC,,0.81,128.0,WeatherDisplay:10.37,2013-06-15 14:18:00,
2013-06-15 15:23:00,48.8,47.7,29.45,NNW,333,14.0,14.0,96,0.02,OVC,,0.81,162.0,WeatherDisplay:10.37,2013-06-15 14:23:00,
2013-06-15 15:28:00,49.1,48.0,29.45,North,356,15.0,15.0,96,0.02,OVC,,0.81,128.0,WeatherDisplay:10.37,2013-06-15 14:28:00,
2013-06-15 15:33:00,48.9,47.8,29.45,SSW,203,11.5,11.5,96,0.01,OVC,,0.81,81.0,WeatherDisplay:10.37,2013-06-15 14:33:00,
2013-06-15 15:38:00,48.9,47.8,29.45,North,0,8.1,8.1,96,0.01,OVC,,0.81,79.0,WeatherDisplay:10.37,2013-06-15 14:38:00,
2013-06-15 15:43:00,48.9,47.8,29.45,NNW,339,12.7,12.7,96,0.01,OVC,,0.81,91.0,WeatherDisplay:10.37,2013-06-15 14:43:00,
2013-06-15 15:48:00,49.1,48.3,29.45,NW,319,10.4,10.4,97,0.02,RA,,0.82,157.0,WeatherDisplay:10.37,2013-06-15 14:48:00,
2013-06-15 15:53:00,49.2,48.4,29.45,North,0,10.4,10.4,97,0.03,RA,,0.83,169.0,WeatherDisplay:10.37,2013-06-15 14:53:00,
2013-06-15 15:58:00,49.1,48.3,29.45,NNW,333,18.4,18.4,97,0.05,RA,,0.85,135.0,WeatherDisplay:10.37,2013-06-15 14:58:00,
2013-06-15 16:03:00,48.8,48.3,29.46,North,0,17.3,17.3,98,0.07,RA,,0.87,86.0,WeatherDisplay:10.37,2013-06-15 15:03:00,
2013-06-15 16:08:00,48.8,48.3,29.46,NW,306,13.8,13.8,98,0.06,RA,,0.87,77.0,WeatherDisplay:10.37,2013-06-15 15:08:00,
2013-06-15 16:13:00,48.8,48.3,29.46,SW,217,16.1,16.1,98,0.06,OVC,,0.87,79.0,WeatherDisplay:10.37,2013-06-15 15:13:00,
2013-06-15 16:18:00,48.8,48.3,29.46,NNW,337,18.4,18.4,98,0.06,OVC,,0.87,60.0,WeatherDisplay:10.37,2013-06-15 15:18:00,
2013-06-15 16:23:00,48.9,48.6,29.46,North,0,9.2,9.2,99,0.06,OVC,,0.87,70.0,WeatherDisplay:10.37,2013-06-15 15:23:00,
2013-06-15 16:28:00,48.9,48.6,29.45,North,359,16.1,16.1,99,0.06,OVC,,0.87,77.0,WeatherDisplay:10.37,2013-06-15 15:28:00,
2013-06-15 16:33:00,49.1,48.8,29.46,NW,309,15.0,15.0,99,0.06,OVC,,0.87,90.0,WeatherDisplay:10.37,2013-06-15 15:33:00,
2013-06-15 16:39:00,49.1,48.8,29.46,NW,325,11.5,11.5,99,0.06,OVC,,0.87,83.0,WeatherDisplay:10.37,2013-06-15 15:39:00,
2013-06-15 16:44:00,49.2,48.9,29.46,SW,234,11.5,11.5,99,0.06,OVC,,0.87,65.0,WeatherDisplay:10.37,2013-06-15 15:44:00,
2013-06-15 16:49:00,49.4,49.1,29.46,NNW,340,8.1,8.1,99,0.05,OVC,,0.87,81.0,WeatherDisplay:10.37,2013-06-15 15:49:00,
2013-06-15 16:54:00,49.8,49.8,29.46,West,268,16.1,16.1,100,0.03,OVC,,0.87,49.0,WeatherDisplay:10.37,2013-06-15 15:54:00,
2013-06-15 16:59:00,49.9,49.9,29.46,North,349,8.1,8.1,100,0.01,OVC,,0.87,132.0,WeatherDisplay:10.37,2013-06-15 15:59:00,
2013-06-15 17:04:00,50.2,50.2,29.46,NW,309,8.1,8.1,100,0.00,OVC,,0.87,88.0,WeatherDisplay:10.37,2013-06-15 16:04:00,
2013-06-15 17:09:00,50.5,50.5,29.46,NNW,336,11.5,11.5,100,0.00,OVC,,0.87,150.0,WeatherDisplay:10.37,2013-06-15 16:09:00,
2013-06-15 17:15:00,50.8,50.8,29.46,NW,315,10.4,10.4,100,0.00,OVC,,0.87,162.0,WeatherDisplay:10.37,2013-06-15 16:15:00,
2013-06-15 17:20:00,51.0,51.0,29.46,NW,322,9.2,9.2,100,0.00,OVC,,0.87,135.0,WeatherDisplay:10.37,2013-06-15 16:20:00,
2013-06-15 17:25:00,51.1,51.1,29.46,WSW,248,19.6,19.6,100,0.00,OVC,,0.87,109.0,WeatherDisplay:10.37,2013-06-15 16:25:00,
2013-06-15 17:30:00,51.3,51.3,29.46,WSW,240,11.5,11.5,100,0.00,OVC,,0.87,160.0,WeatherDisplay:10.37,2013-06-15 16:30:00,
2013-06-15 17:35:00,51.6,51.6,29.46,SW,229,11.5,11.5,100,0.00,BKN,,0.87,211.0,WeatherDisplay:10.37,2013-06-15 16:35:00,
2013-06-15 17:40:00,51.6,51.6,29.47,NNW,339,4.6,4.6,100,0.00,OVC,,0.87,118.0,WeatherDisplay:10.37,2013-06-15 16:40:00,
2013-06-15 17:45:00,51.4,51.4,29.47,WSW,247,6.9,6.9,100,0.00,OVC,,0.87,91.0,WeatherDisplay:10.37,2013-06-15 16:45:00,
2013-06-15 17:50:00,51.3,51.3,29.47,NNW,336,11.5,11.5,100,0.00,OVC,,0.87,160.0,WeatherDisplay:10.37,2013-06-15 16:50:00,
2013-06-15 17:56:00,51.6,51.6,29.47,SW,229,11.5,11.5,100,0.00,OVC,,0.87,157.0,WeatherDisplay:10.37,2013-06-15 16:56:00,
2013-06-15 18:01:00,51.9,51.9,29.47,North,0,10.4,10.4,100,0.00,BKN,,0.87,190.0,WeatherDisplay:10.37,2013-06-15 17:01:00,
2013-06-15 18:06:00,51.7,51.7,29.47,SW,226,9.2,9.2,100,0.00,OVC,,0.87,58.0,WeatherDisplay:10.37,2013-06-15 17:06:00,
2013-06-15 18:11:00,51.6,51.6,29.47,NW,320,5.8,5.8,100,0.00,OVC,,0.87,195.0,WeatherDisplay:10.37,2013-06-15 17:11:00,
2013-06-15 18:16:00,51.7,51.7,29.47,NNW,333,10.4,10.4,100,0.00,BKN,,0.87,125.0,WeatherDisplay:10.37,2013-06-15 17:16:00,
2013-06-15 18:21:00,51.7,51.7,29.47,NNW,342,8.1,8.1,100,0.00,BKN,,0.87,287.0,WeatherDisplay:10.37,2013-06-15 17:21:00,
2013-06-15 18:26:00,52.5,52.5,29.47,North,352,8.0,8.0,100,0.00,FEW,,0.87,362.0,WeatherDisplay:10.37,2013-06-15 17:26:00,
2013-06-15 18:32:00,52.5,52.5,29.47,WSW,239,6.9,6.9,100,0.00,BKN,,0.87,181.0,WeatherDisplay:10.37,2013-06-15 17:32:00,
2013-06-15 18:37:00,52.2,52.2,29.47,NNW,336,10.4,10.4,100,0.00,BKN,,0.87,183.0,WeatherDisplay:10.37,2013-06-15 17:37:00,
2013-06-15 18:42:00,52.0,52.0,29.48,NW,318,8.1,8.1,100,0.00,OVC,,0.87,135.0,WeatherDisplay:10.37,2013-06-15 17:42:00,
2013-06-15 18:47:00,52.0,52.0,29.48,NNW,330,7.0,7.0,100,0.00,OVC,,0.87,130.0,WeatherDisplay:10.37,2013-06-15 17:47:00,
2013-06-15 18:52:00,52.0,52.0,29.48,SW,227,12.7,12.7,100,0.00,OVC,,0.87,109.0,WeatherDisplay:10.37,2013-06-15 17:52:00,
2013-06-15 18:57:00,52.0,52.0,29.48,NNW,336,11.5,11.5,100,0.00,OVC,,0.87,99.0,WeatherDisplay:10.37,2013-06-15 17:57:00,
2013-06-15 19:03:00,52.2,52.2,29.48,North,357,10.4,10.4,100,0.00,OVC,,0.87,62.0,WeatherDisplay:10.37,2013-06-15 18:03:00,
2013-06-15 19:08:00,51.9,51.9,29.48,NW,325,8.1,8.1,100,0.00,OVC,,0.87,60.0,WeatherDisplay:10.37,2013-06-15 18:08:00,
2013-06-15 19:13:00,51.9,51.9,29.49,WNW,291,5.8,5.8,100,0.00,OVC,,0.87,69.0,WeatherDisplay:10.37,2013-06-15 18:13:00,
2013-06-15 19:18:00,51.9,51.9,29.49,North,0,8.0,8.0,100,0.00,OVC,,0.87,56.0,WeatherDisplay:10.37,2013-06-15 18:18:00,
2013-06-15 19:23:00,52.0,52.0,29.49,North,0,7.0,7.0,100,0.00,OVC,,0.87,46.0,WeatherDisplay:10.37,2013-06-15 18:23:00,
2013-06-15 19:28:00,51.9,51.9,29.48,North,0,3.5,3.5,100,0.00,OVC,,0.87,69.0,WeatherDisplay:10.37,2013-06-15 18:28:00,
2013-06-15 19:33:00,52.0,52.0,29.49,North,357,4.0,4.0,100,0.00,BKN,,0.87,100.0,WeatherDisplay:10.37,2013-06-15 18:33:00,
2013-06-15 19:38:00,52.2,52.2,29.49,NNW,339,5.0,5.0,100,0.00,BKN,,0.88,118.0,WeatherDisplay:10.37,2013-06-15 18:38:00,
2013-06-15 19:43:00,52.5,52.5,29.49,SW,233,2.3,2.3,100,0.02,RA,,0.89,199.0,WeatherDisplay:10.37,2013-06-15 18:43:00,
2013-06-15 19:48:00,52.9,52.9,29.49,North,0,4.6,4.6,100,0.02,RA,,0.89,171.0,WeatherDisplay:10.37,2013-06-15 18:48:00,
2013-06-15 19:53:00,52.9,52.9,29.49,NNW,343,6.9,6.9,100,0.02,SCT,,0.89,125.0,WeatherDisplay:10.37,2013-06-15 18:53:00,
2013-06-15 19:58:00,52.9,52.9,29.49,North,349,8.1,8.1,100,0.02,FEW,,0.89,160.0,WeatherDisplay:10.37,2013-06-15 18:58:00,
2013-06-15 20:03:00,53.2,53.2,29.49,NW,309,6.9,6.9,100,0.02,BKN,,0.89,81.0,WeatherDisplay:10.37,2013-06-15 19:03:00,
2013-06-15 20:08:00,53.1,53.1,29.49,WNW,285,8.1,8.1,100,0.02,BKN,,0.89,83.0,WeatherDisplay:10.37,2013-06-15 19:08:00,
2013-06-15 20:14:00,52.9,52.9,29.50,NW,308,3.5,3.5,100,0.02,BKN,,0.89,67.0,WeatherDisplay:10.37,2013-06-15 19:14:00,
2013-06-15 20:19:00,52.9,52.9,29.50,NW,315,5.0,5.0,100,0.02,BKN,,0.89,63.0,WeatherDisplay:10.37,2013-06-15 19:19:00,
2013-06-15 20:24:00,52.9,52.9,29.50,NW,308,4.0,4.0,100,0.02,SCT,,0.89,77.0,WeatherDisplay:10.37,2013-06-15 19:24:00,
2013-06-15 20:29:00,53.1,53.1,29.50,WNW,292,4.0,4.0,100,0.02,BKN,,0.89,58.0,WeatherDisplay:10.37,2013-06-15 19:29:00,
2013-06-15 20:34:00,53.1,53.1,29.50,NNW,340,4.6,4.6,100,0.02,BKN,,0.89,46.0,WeatherDisplay:10.37,2013-06-15 19:34:00,
2013-06-15 20:40:00,53.1,52.8,29.51,NW,323,4.6,4.6,99,0.01,OVC,,0.89,40.0,WeatherDisplay:10.37,2013-06-15 19:40:00,
2013-06-15 20:45:00,52.9,52.6,29.51,NW,323,5.8,5.8,99,0.00,OVC,,0.89,26.0,WeatherDisplay:10.37,2013-06-15 19:45:00,
2013-06-15 20:50:00,52.9,52.6,29.51,NW,325,3.5,3.5,99,0.00,OVC,,0.89,25.0,WeatherDisplay:10.37,2013-06-15 19:50:00,
2013-06-15 20:55:00,52.8,52.5,29.51,NW,325,3.5,3.5,99,0.00,CLR,,0.89,106.0,WeatherDisplay:10.37,2013-06-15 19:55:00,
2013-06-15 21:00:00,52.8,52.5,29.51,WSW,240,1.2,0.0,99,0.00,SCT,,0.89,56.0,WeatherDisplay:10.37,2013-06-15 20:00:00,
2013-06-15 21:05:00,52.8,52.5,29.52,WSW,237,0.0,0.0,99,0.00,SCT,,0.89,55.0,WeatherDisplay:10.37,2013-06-15 20:05:00,
2013-06-15 21:11:00,52.8,52.5,29.52,NW,325,2.3,2.3,99,0.00,CLR,,0.89,70.0,WeatherDisplay:10.37,2013-06-15 20:11:00,
2013-06-15 21:16:00,52.8,52.5,29.52,West,268,2.3,2.3,99,0.00,SCT,,0.89,35.0,WeatherDisplay:10.37,2013-06-15 20:16:00,
2013-06-15 21:21:00,52.6,52.3,29.53,NW,311,2.3,2.3,99,0.00,BKN,,0.89,21.0,WeatherDisplay:10.37,2013-06-15 20:21:00,
2013-06-15 21:26:00,52.6,52.3,29.53,NNW,347,7.0,7.0,99,0.00,BKN,,0.89,18.0,WeatherDisplay:10.37,2013-06-15 20:26:00,
2013-06-15 21:31:00,52.3,51.8,29.53,NW,316,2.3,0.0,98,0.00,SCT,,0.89,18.0,WeatherDisplay:10.37,2013-06-15 20:31:00,
2013-06-15 21:36:00,52.2,51.7,29.54,WNW,301,4.6,4.6,98,0.00,SCT,,0.89,16.0,WeatherDisplay:10.37,2013-06-15 20:36:00,
2013-06-15 21:41:00,52.0,51.5,29.54,WNW,301,3.0,3.0,98,0.00,SCT,,0.89,14.0,WeatherDisplay:10.37,2013-06-15 20:41:00,
2013-06-15 21:46:00,51.9,51.4,29.54,NW,312,4.6,4.6,98,0.00,SCT,,0.89,9.0,WeatherDisplay:10.37,2013-06-15 20:46:00,
2013-06-15 21:51:00,51.7,51.2,29.55,NW,319,2.3,2.3,98,0.00,CLR,,0.89,7.0,WeatherDisplay:10.37,2013-06-15 20:51:00,
2013-06-15 21:57:00,51.6,51.1,29.55,NW,322,1.2,1.2,98,0.00,OVC,,0.89,7.0,WeatherDisplay:10.37,2013-06-15 20:57:00,
2013-06-15 22:02:00,51.4,50.9,29.55,North,0,4.6,4.6,98,0.00,OVC,,0.89,5.0,WeatherDisplay:10.37,2013-06-15 21:02:00,
2013-06-15 22:07:00,51.4,50.9,29.55,WNW,298,3.5,3.5,98,0.00,OVC,,0.89,5.0,WeatherDisplay:10.37,2013-06-15 21:07:00,
2013-06-15 22:12:00,51.3,50.8,29.56,West,277,2.3,2.3,98,0.00,OVC,,0.89,5.0,WeatherDisplay:10.37,2013-06-15 21:12:00,
2013-06-15 22:17:00,51.3,50.8,29.56,NNW,340,3.5,0.0,98,0.00,OVC,,0.89,0.0,WeatherDisplay:10.37,2013-06-15 21:17:00,
2013-06-15 22:22:00,51.1,50.6,29.56,NW,313,3.5,3.5,98,0.00,OVC,,0.89,0.0,WeatherDisplay:10.37,2013-06-15 21:22:00,
2013-06-15 22:27:00,51.0,50.5,29.56,NW,306,1.2,1.2,98,0.00,OVC,,0.89,0.0,WeatherDisplay:10.37,2013-06-15 21:27:00,
2013-06-15 22:32:00,51.0,50.5,29.56,WNW,302,2.3,2.3,98,0.00,OVC,,0.89,0.0,WeatherDisplay:10.37,2013-06-15 21:32:00,
2013-06-15 22:37:00,50.8,50.3,29.57,NNW,328,1.2,1.2,98,0.00,CLR,,0.89,0.0,WeatherDisplay:10.37,2013-06-15 21:37:00,
2013-06-15 22:42:00,50.8,50.3,29.57,NW,326,2.3,0.0,98,0.00,CLR,,0.89,0.0,WeatherDisplay:10.37,2013-06-15 21:42:00,
2013-06-15 22:47:00,50.7,50.2,29.57,NW,325,2.3,2.3,98,0.00,CLR,,0.89,0.0,WeatherDisplay:10.37,2013-06-15 21:47:00,
2013-06-15 22:53:00,50.7,50.2,29.57,North,0,5.8,5.8,98,0.00,CLR,,0.89,0.0,WeatherDisplay:10.37,2013-06-15 21:53:00,
2013-06-15 22:58:00,50.5,50.0,29.57,WNW,291,4.6,4.6,98,0.00,CLR,,0.89,0.0,WeatherDisplay:10.37,2013-06-15 21:58:00,
2013-06-15 23:03:00,50.4,49.9,29.57,NW,306,2.3,2.3,98,0.00,CLR,,0.89,0.0,WeatherDisplay:10.37,2013-06-15 22:03:00,
2013-06-15 23:08:00,50.4,50.1,29.57,North,0,3.5,3.5,99,0.00,CLR,,0.89,0.0,WeatherDisplay:10.37,2013-06-15 22:08:00,
2013-06-15 23:13:00,50.4,50.1,29.57,SW,230,4.6,4.6,99,0.00,CLR,,0.89,0.0,WeatherDisplay:10.37,2013-06-15 22:13:00,
2013-06-15 23:18:00,50.4,50.1,29.57,WNW,302,2.3,2.3,99,0.00,CLR,,0.89,0.0,WeatherDisplay:10.37,2013-06-15 22:18:00,
2013-06-15 23:23:00,50.4,50.1,29.57,WNW,282,2.3,0.0,99,0.00,CLR,,0.89,0.0,WeatherDisplay:10.37,2013-06-15 22:23:00,
2013-06-15 23:28:00,50.4,50.1,29.57,WNW,284,2.3,2.3,99,0.00,CLR,,0.89,0.0,WeatherDisplay:10.37,2013-06-15 22:28:00,
2013-06-15 23:33:00,50.4,50.1,29.58,SW,232,3.5,3.5,99,0.00,CLR,,0.89,0.0,WeatherDisplay:10.37,2013-06-15 22:33:00,
2013-06-15 23:39:00,50.2,49.9,29.58,SW,233,2.3,2.3,99,0.00,CLR,,0.89,0.0,WeatherDisplay:10.37,2013-06-15 22:39:00,
2013-06-15 23:44:00,50.2,49.9,29.58,WNW,298,1.2,1.2,99,0.00,CLR,,0.89,0.0,WeatherDisplay:10.37,2013-06-15 22:44:00,
2013-06-15 23:49:00,50.2,49.9,29.58,NW,320,3.5,3.5,99,0.00,CLR,,0.89,0.0,WeatherDisplay:10.37,2013-06-15 22:49:00,
2013-06-15 23:54:00,50.2,49.9,29.59,WNW,292,3.5,3.5,99,0.00,CLR,,0.89,0.0,WeatherDisplay:10.37,2013-06-15 22:54:00,
2013-06-15 23:59:00,50.2,49.9,29.59,NNW,340,3.5,3.5,99,0.00,CLR,,0.89,0.0,WeatherDisplay:10.37,2013-06-15 22:59:00,